Time;durP1;ratioP1;P1;durP2;ratioP2;P2;SDS_P1;SDS_P2;PMS_P1;PMS_P2;Temp;Humidity;BMP_temperature;BMP_pressure;BME280_temperature;BME280_humidity;BME280_pressure;Samples;Min_cycle;Max_cycle;Signal;HPM_P1;HPM_P2
2023/04/04 00:02:31;;;;;;;4.97;1.90;;;;;;;3.49;43.02;98725.94;12678582;23;20013;-79
2023/04/04 00:07:52;;;;;;;4.55;1.60;;;;;;;3.41;42.83;98725.03;12642016;23;20022;-79
2023/04/04 00:13:14;;;;;;;5.35;1.80;;;;;;;3.42;42.95;98724.50;12662081;23;20021;-79
2023/04/04 00:18:36;;;;;;;5.05;1.45;;;;;;;3.38;43.31;98715.06;12621303;23;20519;-79
2023/04/04 00:23:58;;;;;;;4.40;1.67;;;;;;;3.34;43.23;98712.56;12661388;23;20041;-79
2023/04/04 00:29:19;;;;;;;4.72;1.60;;;;;;;3.25;43.52;98707.44;12642314;23;20100;-79
2023/04/04 00:34:40;;;;;;;3.53;1.45;;;;;;;3.20;43.38;98699.25;12662543;23;20038;-79
2023/04/04 00:40:03;;;;;;;4.03;1.90;;;;;;;3.14;43.71;98702.06;12645084;23;20511;-79
2023/04/04 00:45:24;;;;;;;4.78;1.85;;;;;;;3.04;43.80;98698.91;12657515;23;20075;-79
2023/04/04 00:50:46;;;;;;;3.95;1.25;;;;;;;2.99;44.26;98691.47;12642393;23;20022;-79
2023/04/04 00:56:07;;;;;;;5.35;1.58;;;;;;;2.91;44.14;98698.84;12621337;23;20025;-79
2023/04/04 01:01:30;;;;;;;4.60;1.60;;;;;;;2.73;44.31;98689.28;12621340;23;20026;-79
2023/04/04 01:06:51;;;;;;;4.32;1.35;;;;;;;2.53;45.19;98689.75;12622194;23;20018;-79
2023/04/04 01:12:13;;;;;;;3.20;1.48;;;;;;;2.31;45.58;98685.19;12661760;23;20023;-79
2023/04/04 01:17:36;;;;;;;4.93;1.40;;;;;;;2.17;45.63;98669.81;12622683;23;20025;-79
2023/04/04 01:22:57;;;;;;;3.92;1.40;;;;;;;2.08;45.36;98675.66;12622805;23;20037;-78
2023/04/04 01:28:19;;;;;;;4.65;1.40;;;;;;;1.99;45.81;98677.47;12664492;23;20029;-79
2023/04/04 01:33:45;;;;;;;4.32;1.55;;;;;;;1.89;46.50;98668.06;12668959;23;20018;-79
2023/04/04 01:39:26;;;;;;;4.30;1.38;;;;;;;1.84;47.73;98668.88;12610643;23;20018;-79
2023/04/04 01:44:55;;;;;;;5.35;1.38;;;;;;;1.75;46.86;98668.44;12643763;23;20014;-80
2023/04/04 01:50:23;;;;;;;3.55;1.58;;;;;;;1.66;47.31;98662.00;12644791;23;20014;-79
2023/04/04 01:55:45;;;;;;;4.85;1.55;;;;;;;1.63;48.19;98663.00;12642635;23;20452;-79
2023/04/04 02:01:08;;;;;;;4.43;1.47;;;;;;;1.61;48.27;98670.28;12643530;23;20459;-80
2023/04/04 02:06:30;;;;;;;4.68;1.50;;;;;;;1.60;48.00;98657.78;12619559;23;20026;-79
2023/04/04 02:11:52;;;;;;;3.97;1.52;;;;;;;1.59;48.42;98657.03;12621399;23;20025;-79
2023/04/04 02:17:13;;;;;;;4.38;1.77;;;;;;;1.69;48.52;98649.94;12639548;23;20073;-78
2023/04/04 02:22:34;;;;;;;4.68;1.58;;;;;;;1.78;48.90;98657.13;12639432;23;20018;-79
2023/04/04 02:27:55;;;;;;;5.22;1.77;;;;;;;1.76;48.80;98656.91;12636100;23;20025;-79
2023/04/04 02:33:17;;;;;;;3.42;1.25;;;;;;;1.81;48.93;98649.84;12620629;23;20105;-79
2023/04/04 02:38:40;;;;;;;5.93;1.80;;;;;;;1.87;48.88;98659.56;12642920;23;20018;-79
2023/04/04 02:44:01;;;;;;;5.72;1.85;;;;;;;1.93;49.04;98659.50;12620617;23;20745;-79
2023/04/04 02:49:22;;;;;;;3.83;1.35;;;;;;;1.97;49.48;98652.47;12639378;23;20069;-78
2023/04/04 02:54:45;;;;;;;4.40;1.70;;;;;;;1.88;49.94;98644.53;12599472;23;20018;-78
2023/04/04 03:00:17;;;;;;;6.00;1.63;;;;;;;1.77;49.10;98647.38;12623818;23;20022;-78
2023/04/04 03:05:37;;;;;;;3.75;1.58;;;;;;;1.59;50.14;98648.03;12617919;23;20026;-79
2023/04/04 03:10:58;;;;;;;5.25;1.70;;;;;;;1.51;50.08;98641.59;12640670;23;20014;-79
2023/04/04 03:16:20;;;;;;;3.30;1.30;;;;;;;1.44;50.45;98640.88;12642213;23;20021;-79
2023/04/04 03:21:44;;;;;;;4.85;1.80;;;;;;;1.39;50.66;98649.19;12643315;23;20025;-78
2023/04/04 03:27:06;;;;;;;5.57;2.50;;;;;;;1.27;50.82;98651.25;12642078;23;20344;-79
2023/04/04 03:32:27;;;;;;;3.63;1.52;;;;;;;1.34;51.59;98647.94;12661780;23;20037;-79
2023/04/04 03:37:48;;;;;;;4.72;1.67;;;;;;;1.46;51.06;98653.38;12663983;23;20022;-79
2023/04/04 03:43:41;;;;;;;3.55;1.52;;;;;;;1.60;51.80;98649.53;12647688;23;20401;-79
2023/04/04 03:49:42;;;;;;;4.78;1.48;;;;;;;1.60;52.13;98646.78;12656350;23;20025;-79
2023/04/04 03:55:14;;;;;;;3.40;1.38;;;;;;;1.67;51.80;98646.22;12649556;23;20033;-78
2023/04/04 04:00:35;;;;;;;6.38;1.80;;;;;;;1.75;50.96;98641.66;12624675;23;20064;-78
2023/04/04 04:06:06;;;;;;;4.57;1.38;;;;;;;1.77;51.43;98654.91;12654154;23;20081;-79
2023/04/04 04:11:49;;;;;;;4.55;1.92;;;;;;;1.86;51.61;98647.06;12650453;23;20025;-78
2023/04/04 04:17:10;;;;;;;6.15;1.95;;;;;;;1.96;50.97;98644.72;12624479;23;20029;-80
2023/04/04 04:22:31;;;;;;;4.40;1.67;;;;;;;1.94;51.98;98653.50;12642637;23;20463;-79
2023/04/04 04:27:56;;;;;;;5.70;2.13;;;;;;;1.95;51.57;98665.25;12623385;23;20030;-78
2023/04/04 04:33:18;;;;;;;5.78;1.95;;;;;;;2.02;51.72;98659.16;12641667;23;20018;-78
2023/04/04 04:38:48;;;;;;;7.97;1.88;;;;;;;2.05;51.68;98658.16;12624321;23;20014;-78
2023/04/04 04:44:09;;;;;;;5.13;2.10;;;;;;;2.10;51.43;98651.84;12621161;23;20018;-78
2023/04/04 04:49:31;;;;;;;7.03;2.28;;;;;;;2.07;51.83;98660.41;12623136;23;20018;-79
2023/04/04 04:54:58;;;;;;;5.38;2.30;;;;;;;2.09;51.72;98657.88;12626307;23;20334;-79
2023/04/04 05:00:22;;;;;;;4.13;1.75;;;;;;;2.14;51.96;98651.56;12642079;23;20468;-78
2023/04/04 05:05:45;;;;;;;7.05;2.20;;;;;;;2.25;51.66;98654.97;12607394;23;20337;-78
2023/04/04 05:11:08;;;;;;;7.70;2.15;;;;;;;2.25;52.17;98654.22;12620727;23;20433;-79
2023/04/04 05:16:30;;;;;;;4.97;2.17;;;;;;;2.30;52.23;98658.91;12641717;23;20073;-78
2023/04/04 05:21:52;;;;;;;5.15;1.98;;;;;;;2.41;51.55;98656.03;12642346;23;20080;-78
2023/04/04 05:27:28;;;;;;;5.47;2.45;;;;;;;2.43;51.71;98659.03;12661414;23;20025;-79
2023/04/04 05:32:55;;;;;;;6.35;2.33;;;;;;;2.55;51.69;98662.41;12611817;23;20499;-79
2023/04/04 05:38:20;;;;;;;5.82;2.38;;;;;;;2.66;51.66;98659.53;12692930;23;20014;-78
2023/04/04 05:43:46;;;;;;;10.27;2.30;;;;;;;2.81;51.05;98670.88;12664592;23;20018;-78
2023/04/04 05:49:10;;;;;;;6.20;2.20;;;;;;;2.90;50.54;98664.25;12619012;23;20032;-78
2023/04/04 05:54:37;;;;;;;8.25;2.70;;;;;;;3.44;51.03;98668.78;12656990;23;20018;-78
2023/04/04 06:00:08;;;;;;;7.53;2.55;;;;;;;6.87;48.63;98677.63;12619239;23;20109;-79
2023/04/04 06:05:34;;;;;;;6.28;2.47;;;;;;;7.35;47.03;98675.25;12642599;23;20072;-78
2023/04/04 06:10:55;;;;;;;5.45;2.05;;;;;;;6.57;44.41;98678.97;12634867;23;20017;-79
2023/04/04 06:16:16;;;;;;;5.95;2.22;;;;;;;8.59;44.61;98683.91;12637292;23;20018;-78
2023/04/04 06:21:38;;;;;;;5.45;2.03;;;;;;;18.25;38.86;98681.78;12669394;23;20038;-79
2023/04/04 06:27:00;;;;;;;6.88;1.63;;;;;;;24.14;26.18;98675.19;12653524;23;20029;-82
2023/04/04 06:32:22;;;;;;;2.73;1.20;;;;;;;28.00;22.34;98673.31;12632860;23;20018;-81
2023/04/04 06:37:44;;;;;;;2.78;1.27;;;;;;;27.82;15.86;98673.78;12634067;23;20524;-81
2023/04/04 06:43:09;;;;;;;2.63;1.20;;;;;;;30.39;16.51;98670.28;12634808;23;20026;-82
2023/04/04 06:48:33;;;;;;;2.47;1.23;;;;;;;31.68;12.98;98663.19;12653770;23;20365;-81
2023/04/04 06:53:55;;;;;;;2.75;1.13;;;;;;;32.77;8.82;98660.59;12673284;23;20052;-81
2023/04/04 06:59:17;;;;;;;2.53;0.90;;;;;;;35.36;9.16;98670.63;12653669;23;20069;-81
2023/04/04 07:04:38;;;;;;;1.50;0.70;;;;;;;33.49;8.51;98670.91;12633266;23;20039;-80
2023/04/04 07:10:00;;;;;;;3.35;0.93;;;;;;;26.39;9.83;98664.94;12651999;23;20018;-78
2023/04/04 07:15:21;;;;;;;2.17;1.00;;;;;;;31.72;8.98;98663.19;12616655;23;20017;-80
2023/04/04 07:20:50;;;;;;;2.55;0.93;;;;;;;34.52;7.34;98673.34;12638105;23;20021;-81
2023/04/04 07:26:11;;;;;;;4.13;1.13;;;;;;;34.90;6.86;98661.22;12655873;23;20053;-80
2023/04/04 07:31:31;;;;;;;1.55;0.75;;;;;;;33.65;6.99;98660.59;12632160;23;20330;-81
2023/04/04 07:36:54;;;;;;;2.92;1.15;;;;;;;29.55;7.45;98664.13;12617746;23;20022;-82
2023/04/04 07:42:15;;;;;;;2.72;0.98;;;;;;;24.95;8.92;98658.81;12659887;23;20437;-79
2023/04/04 07:47:36;;;;;;;1.77;0.70;;;;;;;21.04;11.26;98657.97;12639574;23;20022;-79
2023/04/04 07:52:58;;;;;;;3.22;1.00;;;;;;;19.66;11.63;98655.50;12678877;23;20097;-79
2023/04/04 07:58:21;;;;;;;3.70;1.00;;;;;;;16.39;13.74;98655.13;12657156;23;20110;-79
2023/04/04 08:03:42;;;;;;;3.63;1.55;;;;;;;14.14;14.86;98656.31;12639555;23;20022;-78
2023/04/04 08:09:03;;;;;;;2.97;1.17;;;;;;;12.15;16.35;98654.69;12639372;23;20021;-79
2023/04/04 08:14:26;;;;;;;2.90;1.10;;;;;;;12.54;17.32;98654.78;12678872;23;20045;-78
2023/04/04 08:19:48;;;;;;;2.75;1.13;;;;;;;12.00;19.29;98654.94;12647776;23;20056;-77
2023/04/04 08:25:10;;;;;;;3.42;1.50;;;;;;;11.04;19.77;98650.28;12669954;23;20073;-77
2023/04/04 08:30:31;;;;;;;4.75;1.20;;;;;;;10.08;20.96;98649.34;12653583;23;20467;-77
2023/04/04 08:35:53;;;;;;;3.63;1.10;;;;;;;11.01;21.59;98654.22;12672553;23;20078;-77
2023/04/04 08:41:15;;;;;;;2.97;1.33;;;;;;;21.35;15.48;98651.41;12678148;23;20077;-83
2023/04/04 08:46:36;;;;;;;3.85;1.40;;;;;;;22.91;15.60;98647.16;12638636;23;20014;-86
2023/04/04 08:51:58;;;;;;;2.85;1.00;;;;;;;25.34;12.45;98638.34;12657490;23;20036;-87
2023/04/04 08:57:19;;;;;;;2.42;1.40;;;;;;;19.94;13.85;98647.56;12678605;23;20437;-79
2023/04/04 09:02:59;;;;;;;4.82;1.58;;;;;;;15.43;16.27;98635.97;12653847;23;20076;-80
2023/04/04 09:08:22;;;;;;;4.82;1.60;;;;;;;13.29;17.87;98640.63;12698339;23;20494;-89
2023/04/04 09:13:44;;;;;;;4.43;1.80;;;;;;;21.46;16.71;98631.94;12676131;23;20044;-79
2023/04/04 09:19:05;;;;;;;4.57;1.92;;;;;;;19.94;15.26;98641.16;12678244;23;20105;-80
2023/04/04 09:24:40;;;;;;;2.27;1.20;;;;;;;28.10;11.42;98632.53;12656208;23;20449;-81
2023/04/04 09:30:01;;;;;;;2.05;1.13;;;;;;;22.06;12.50;98624.94;12637594;23;20310;-84
2023/04/04 09:35:26;;;;;;;2.75;1.35;;;;;;;28.00;12.61;98626.69;12638626;23;20330;-90
2023/04/04 09:40:47;;;;;;;4.78;1.20;;;;;;;34.26;7.09;98628.78;12617612;23;20022;-91
2023/04/04 09:46:08;;;;;;;2.55;1.25;;;;;;;37.16;6.58;98627.63;12637127;23;20017;-80
2023/04/04 09:51:41;;;;;;;2.70;1.05;;;;;;;38.83;5.06;98614.13;12636646;23;20381;-80
2023/04/04 09:57:02;;;;;;;2.25;0.82;;;;;;;36.03;5.72;98628.03;12638478;23;20069;-80
2023/04/04 10:02:23;;;;;;;1.77;1.17;;;;;;;33.61;5.34;98626.63;12656849;23;20018;-80
2023/04/04 10:07:46;;;;;;;2.60;1.23;;;;;;;25.05;8.81;98628.38;12657249;23;20021;-79
2023/04/04 10:13:10;;;;;;;2.42;1.30;;;;;;;21.26;11.03;98635.44;12636195;23;20021;-76
2023/04/04 10:18:34;;;;;;;1.42;0.90;;;;;;;25.55;9.80;98628.09;12636878;23;20018;-79
2023/04/04 10:23:56;;;;;;;4.20;1.00;;;;;;;24.72;11.06;98626.13;12616611;23;20021;-79
2023/04/04 10:29:17;;;;;;;2.55;1.25;;;;;;;28.71;9.40;98628.19;12615467;23;20022;-80
2023/04/04 10:34:48;;;;;;;2.22;1.27;;;;;;;33.13;6.92;98611.19;12655784;23;20025;-80
2023/04/04 10:40:18;;;;;;;1.67;0.85;;;;;;;35.37;5.30;98613.28;12653974;23;20037;-81
2023/04/04 10:45:41;;;;;;;1.98;0.85;;;;;;;36.07;5.27;98602.50;12617915;23;20437;-80
2023/04/04 10:51:03;;;;;;;2.03;0.93;;;;;;;35.82;5.17;98601.56;12639965;23;20041;-79
2023/04/04 10:56:24;;;;;;;2.35;1.00;;;;;;;35.06;5.08;98596.44;12659616;23;20065;-79
2023/04/04 11:01:53;;;;;;;5.50;1.38;;;;;;;33.96;4.69;98600.19;12660089;23;20022;-79
2023/04/04 11:07:15;;;;;;;2.72;1.00;;;;;;;27.72;6.43;98584.75;12621087;23;20101;-79
2023/04/04 11:12:43;;;;;;;3.13;1.13;;;;;;;23.40;8.62;98580.34;12640040;23;20152;-79
2023/04/04 11:18:05;;;;;;;3.17;1.13;;;;;;;21.12;10.37;98580.91;12621400;23;20025;-76
2023/04/04 11:23:46;;;;;;;3.03;1.25;;;;;;;20.11;11.07;98568.94;12647760;23;20014;-76
2023/04/04 11:29:08;;;;;;;3.88;1.10;;;;;;;19.52;11.90;98558.56;12671960;23;20379;-76
2023/04/04 11:34:30;;;;;;;3.97;1.38;;;;;;;17.28;13.42;98564.38;12680001;23;20456;-76
2023/04/04 11:39:57;;;;;;;3.13;1.00;;;;;;;17.77;13.52;98549.31;12659581;23;20053;-91
2023/04/04 11:45:18;;;;;;;2.28;1.00;;;;;;;18.11;13.39;98558.81;12642209;23;20020;-90
2023/04/04 11:50:42;;;;;;;2.90;0.88;;;;;;;18.12;13.71;98551.81;12679622;23;20014;-81
2023/04/04 11:56:03;;;;;;;9.40;1.15;;;;;;;17.63;14.17;98540.78;12679822;23;20065;-92
2023/04/04 12:01:24;;;;;;;2.83;1.17;;;;;;;16.86;14.47;98543.75;12626292;23;20021;-88
2023/04/04 12:06:48;;;;;;;2.13;0.90;;;;;;;16.86;15.00;98537.38;12640946;23;20441;-86
2023/04/04 12:12:13;;;;;;;4.32;1.00;;;;;;;16.83;14.92;98542.16;12680449;23;20369;-88
2023/04/04 12:17:42;;;;;;;2.05;0.80;;;;;;;15.10;15.82;98543.22;12660306;23;20028;-88
2023/04/04 12:23:21;;;;;;;3.17;0.95;;;;;;;14.17;16.71;98540.00;12728741;23;20022;-86
2023/04/04 12:41:32;;;;;;;2.50;1.00;;;;;;;12.75;18.48;98534.50;12784002;23;20025;-79
2023/04/04 14:19:57;;;;;;;1.65;0.63;;;;;;;10.51;21.38;98492.47;12799619;23;20032;-84
2023/04/04 14:25:19;;;;;;;2.08;0.85;;;;;;;10.36;21.58;98489.13;12794556;23;20043;-85
2023/04/04 14:30:50;;;;;;;4.30;1.10;;;;;;;10.86;21.72;98492.41;12782467;23;20064;-84
2023/04/04 14:36:13;;;;;;;2.03;0.85;;;;;;;10.93;21.44;98488.78;12797353;23;20016;-82
2023/04/04 14:41:36;;;;;;;4.13;1.02;;;;;;;10.81;21.67;98476.66;12794133;23;20028;-81
2023/04/04 14:46:57;;;;;;;3.63;0.88;;;;;;;10.26;22.02;98494.66;12802924;23;20077;-80
2023/04/04 14:52:23;;;;;;;2.17;1.05;;;;;;;9.55;22.39;98483.97;12796766;23;20033;-81
2023/04/04 14:57:45;;;;;;;3.20;1.00;;;;;;;9.17;23.10;98487.06;12797050;23;20028;-79
2023/04/04 15:03:22;;;;;;;4.47;1.48;;;;;;;9.63;23.47;98476.28;12764626;23;20124;-79
2023/04/04 15:08:43;;;;;;;4.47;1.00;;;;;;;10.05;22.74;98481.09;12768191;22;20044;-85
2023/04/04 15:14:11;;;;;;;3.22;1.20;;;;;;;9.94;22.53;98468.38;12745484;23;20035;-84
2023/04/04 15:32:35;;;;;;;2.75;1.10;;;;;;;10.16;23.07;98465.91;12815787;23;20021;-75
2023/04/04 15:37:55;;;;;;;4.70;1.50;;;;;;;10.20;22.58;98466.97;12794765;23;20017;-76
2023/04/04 15:43:16;;;;;;;5.43;1.30;;;;;;;9.90;23.07;98470.81;12792429;23;20021;-76
2023/04/04 15:48:46;;;;;;;2.75;1.00;;;;;;;9.11;23.21;98461.47;12774430;23;20027;-76
2023/04/04 15:54:07;;;;;;;2.22;0.90;;;;;;;8.75;23.75;98476.56;12752105;23;20021;-76
2023/04/04 15:59:32;;;;;;;2.90;0.77;;;;;;;8.28;24.26;98471.75;12771024;23;20024;-77
2023/04/04 16:04:53;;;;;;;4.57;1.08;;;;;;;8.26;24.90;98466.75;12791812;23;20020;-76
2023/04/04 16:10:14;;;;;;;2.33;1.00;;;;;;;8.10;24.75;98461.78;12770015;23;20072;-75
2023/04/04 16:15:34;;;;;;;2.80;0.75;;;;;;;7.72;24.95;98468.94;12784057;23;20017;-76
2023/04/04 16:20:55;;;;;;;7.00;1.35;;;;;;;7.60;25.07;98462.28;12784617;23;20023;-76
2023/04/04 16:26:16;;;;;;;4.57;1.80;;;;;;;7.55;25.65;98473.59;12778079;23;20056;-78
2023/04/04 16:37:50;;;;;;;4.80;0.88;;;;;;;7.30;26.33;98465.81;12812233;23;20025;-78
2023/04/04 16:43:11;;;;;;;2.80;0.70;;;;;;;7.16;26.11;98468.03;12753553;23;20317;-78
2023/04/04 16:48:34;;;;;;;3.97;0.88;;;;;;;6.91;25.80;98463.56;12823505;23;20020;-81
2023/04/04 16:54:17;;;;;;;2.38;0.85;;;;;;;6.66;27.64;98460.53;12801897;23;20032;31
2023/04/04 16:59:40;;;;;;;3.77;1.00;;;;;;;6.53;26.78;98450.34;12573970;23;20018;-76
2023/04/04 17:05:01;;;;;;;3.83;1.00;;;;;;;6.45;27.42;98453.09;12556195;23;20051;-77
2023/04/04 17:10:22;;;;;;;3.85;0.95;;;;;;;6.45;27.13;98460.69;12562564;23;20422;-75
2023/04/04 17:15:43;;;;;;;2.00;0.80;;;;;;;6.27;27.59;98462.47;12600366;23;20042;-77
2023/04/04 17:21:04;;;;;;;2.58;1.05;;;;;;;6.21;27.63;98456.34;12581163;23;20452;-75
2023/04/04 17:26:26;;;;;;;4.55;1.50;;;;;;;6.24;27.84;98463.56;12578838;23;20338;-76
2023/04/04 17:31:47;;;;;;;5.47;1.27;;;;;;;6.04;28.13;98456.81;12599772;23;20016;-77
2023/04/04 17:37:10;;;;;;;6.30;1.73;;;;;;;5.89;28.13;98463.00;12580537;23;20076;-76
2023/04/04 17:42:31;;;;;;;3.42;1.35;;;;;;;5.86;29.51;98463.34;12584302;23;20454;-78
2023/04/04 17:47:53;;;;;;;2.72;1.15;;;;;;;5.89;28.84;98463.00;12609068;23;20018;-77
2023/04/04 17:53:14;;;;;;;2.83;1.20;;;;;;;5.79;28.76;98464.03;12602857;23;20025;-78
2023/04/04 17:58:35;;;;;;;4.85;1.17;;;;;;;5.72;28.92;98476.56;12624770;23;20460;-76
2023/04/04 18:03:56;;;;;;;3.65;1.42;;;;;;;5.59;29.35;98477.41;12678209;23;20021;-77
2023/04/04 18:09:17;;;;;;;4.13;1.45;;;;;;;5.37;29.98;98489.78;12659822;23;20018;-77
2023/04/04 18:14:38;;;;;;;3.65;1.63;;;;;;;5.22;30.26;98486.91;12698368;23;20022;-76
2023/04/04 18:32:31;;;;;;;4.53;2.08;;;;;;;4.83;31.02;98491.34;12799029;23;20418;-77
2023/04/04 18:37:52;;;;;;;5.25;1.67;;;;;;;4.86;31.08;98495.81;12758715;23;20459;-78
2023/04/04 18:43:13;;;;;;;3.90;1.58;;;;;;;4.97;30.99;98496.81;12759033;23;20017;-78
2023/04/04 18:48:33;;;;;;;5.25;1.67;;;;;;;4.97;31.43;98507.88;12759151;23;20503;-78
2023/04/04 18:53:54;;;;;;;3.13;1.58;;;;;;;4.92;31.30;98506.72;12779491;23;20017;-77
2023/04/04 18:59:16;;;;;;;3.53;1.73;;;;;;;4.97;31.64;98499.59;12779576;23;20036;-77
2023/04/04 19:04:38;;;;;;;5.65;1.98;;;;;;;4.95;31.18;98508.44;12739493;23;20017;-77
2023/04/04 19:10:02;;;;;;;3.20;1.42;;;;;;;4.84;31.55;98514.97;12790661;23;20024;-81
2023/04/04 19:15:24;;;;;;;5.75;2.05;;;;;;;4.70;32.27;98507.97;12771721;23;20336;-81
2023/04/04 19:20:45;;;;;;;4.32;1.88;;;;;;;4.56;31.97;98509.31;12780010;23;20021;-77
2023/04/04 19:26:06;;;;;;;6.03;1.90;;;;;;;4.42;32.24;98502.31;12766591;23;20045;-77
2023/04/04 19:31:31;;;;;;;5.95;1.48;;;;;;;4.32;32.82;98508.28;12785029;23;20027;-76
2023/04/04 19:36:53;;;;;;;2.90;1.17;;;;;;;4.20;33.03;98509.03;12783809;23;20024;-76
2023/04/04 19:42:14;;;;;;;4.38;1.50;;;;;;;4.06;33.46;98502.78;12781436;23;20017;-77
2023/04/04 19:47:35;;;;;;;4.43;1.38;;;;;;;3.97;33.22;98508.75;12762008;23;20028;-77
2023/04/04 19:52:56;;;;;;;7.05;1.77;;;;;;;3.91;33.55;98506.09;12761271;23;20338;-77
2023/04/04 19:58:18;;;;;;;3.42;1.45;;;;;;;3.91;33.66;98506.09;12761699;23;20017;-77
2023/04/04 20:03:39;;;;;;;5.20;1.95;;;;;;;3.85;33.50;98501.94;12757467;23;20013;-77
2023/04/04 20:09:07;;;;;;;5.82;2.10;;;;;;;3.82;33.88;98500.97;12720384;23;20067;-76
